Time;durP1;ratioP1;P1;durP2;ratioP2;P2;SDS_P1;SDS_P2;PMS_P1;PMS_P2;Temp;Humidity;BMP_temperature;BMP_pressure;BME280_temperature;BME280_humidity;BME280_pressure;Samples;Min_cycle;Max_cycle;Signal;HPM_P1;HPM_P2
2022/04/24 00:01:58;;;;;;;8.98;4.30;;;10.50;99.90;;;;;;4955408;29;20079;-88
2022/04/24 00:04:27;;;;;;;10.05;4.82;;;10.50;99.90;;;;;;4954560;29;20032;-88
2022/04/24 00:06:54;;;;;;;7.85;4.07;;;10.70;99.90;;;;;;4934973;29;20118;-87
2022/04/24 00:09:23;;;;;;;8.32;3.95;;;10.50;99.90;;;;;;4940748;29;20068;-88
2022/04/24 00:11:49;;;;;;;9.68;4.43;;;10.50;99.90;;;;;;4939126;29;20028;-88
2022/04/24 00:14:17;;;;;;;8.52;3.75;;;10.60;99.90;;;;;;4938735;29;20031;-87
2022/04/24 00:16:43;;;;;;;9.55;4.57;;;10.80;99.90;;;;;;4920663;29;20442;-88
2022/04/24 00:19:09;;;;;;;8.88;4.85;;;10.50;99.90;;;;;;4921657;29;20067;-87
2022/04/24 00:21:35;;;;;;;10.52;4.90;;;10.60;99.90;;;;;;4921258;29;20023;-87
2022/04/24 00:24:01;;;;;;;9.32;4.53;;;10.60;99.90;;;;;;4925826;29;20163;-87
2022/04/24 00:26:27;;;;;;;9.05;4.78;;;10.60;99.90;;;;;;4932797;29;20051;-87
2022/04/24 00:28:53;;;;;;;7.70;4.07;;;10.80;99.90;;;;;;4934969;29;20110;-88
2022/04/24 00:31:19;;;;;;;9.00;4.28;;;10.60;99.90;;;;;;4951159;29;20055;-88
2022/04/24 00:33:45;;;;;;;9.02;4.75;;;10.60;99.90;;;;;;4949186;29;20107;-87
2022/04/24 00:36:10;;;;;;;8.70;4.35;;;10.60;99.90;;;;;;4949176;29;20027;-87
2022/04/24 00:38:36;;;;;;;8.32;4.22;;;10.60;99.90;;;;;;4947677;29;20023;-88
2022/04/24 00:41:03;;;;;;;11.13;4.53;;;10.70;99.90;;;;;;4932730;29;20008;-88
2022/04/24 00:43:29;;;;;;;10.30;4.60;;;10.60;99.90;;;;;;4935617;29;20061;-88
2022/04/24 00:46:13;;;;;;;8.63;3.95;;;10.70;99.90;;;;;;4950764;29;20035;-88
2022/04/24 00:48:43;;;;;;;10.65;4.60;;;10.60;99.90;;;;;;4938007;29;20114;-87
2022/04/24 00:51:09;;;;;;;9.07;3.97;;;10.60;99.90;;;;;;4936624;29;20055;-88
2022/04/24 00:53:35;;;;;;;7.82;4.03;;;10.70;99.90;;;;;;4919587;29;20114;-87
2022/04/24 00:56:01;;;;;;;9.77;4.80;;;10.70;99.90;;;;;;4918459;29;21345;-87
2022/04/24 00:58:27;;;;;;;8.25;4.15;;;10.60;99.90;;;;;;4918366;29;20405;-87
2022/04/24 01:00:54;;;;;;;8.02;4.60;;;10.60;99.90;;;;;;4919390;29;20106;-87
2022/04/24 01:03:19;;;;;;;7.03;3.85;;;10.50;99.90;;;;;;4933251;29;20040;-87
2022/04/24 01:05:45;;;;;;;10.00;4.85;;;10.50;99.90;;;;;;4920816;29;20103;-87
2022/04/24 01:08:11;;;;;;;8.50;4.22;;;10.50;99.90;;;;;;4936005;29;20043;-87
2022/04/24 01:10:38;;;;;;;8.35;4.15;;;10.50;99.90;;;;;;4921695;29;20082;-87
2022/04/24 01:13:04;;;;;;;7.47;4.07;;;10.50;99.90;;;;;;4921127;29;20079;-87
2022/04/24 01:15:31;;;;;;;10.52;4.72;;;10.40;99.90;;;;;;4922879;29;20024;-87
2022/04/24 01:17:57;;;;;;;10.15;4.28;;;10.40;99.90;;;;;;4920559;29;20465;-86
2022/04/24 01:20:23;;;;;;;9.52;4.50;;;10.40;99.90;;;;;;4935309;29;20087;-87
2022/04/24 01:22:49;;;;;;;9.48;4.60;;;10.60;99.90;;;;;;4938876;29;20478;-88
2022/04/24 01:25:14;;;;;;;9.52;4.53;;;10.60;99.90;;;;;;4936191;29;20118;-87
2022/04/24 01:27:40;;;;;;;11.63;4.68;;;10.70;99.90;;;;;;4930736;29;20114;-87
2022/04/24 01:30:07;;;;;;;8.70;4.57;;;10.40;99.90;;;;;;4919200;29;20068;-87
2022/04/24 01:32:33;;;;;;;12.18;4.88;;;10.40;99.90;;;;;;4935770;29;20039;-88
2022/04/24 01:35:03;;;;;;;10.25;4.18;;;10.40;99.90;;;;;;4919390;29;20110;-87
2022/04/24 01:37:28;;;;;;;8.30;4.22;;;10.50;99.90;;;;;;4935170;29;20132;-87
2022/04/24 01:39:54;;;;;;;11.15;4.75;;;10.50;99.90;;;;;;4936301;29;20079;-87
2022/04/24 01:42:24;;;;;;;9.45;5.03;;;10.60;99.90;;;;;;4920069;29;20025;-88
2022/04/24 01:44:50;;;;;;;10.52;4.93;;;10.50;99.90;;;;;;4920700;29;20110;-88
2022/04/24 01:47:16;;;;;;;9.35;4.40;;;10.50;99.90;;;;;;4935815;29;20123;-87
2022/04/24 01:49:41;;;;;;;9.57;4.78;;;10.50;99.90;;;;;;4935191;29;20043;-88
2022/04/24 01:52:07;;;;;;;9.75;4.85;;;10.50;99.90;;;;;;4936129;29;20102;-88
2022/04/24 01:54:33;;;;;;;8.60;4.25;;;10.50;99.90;;;;;;4919953;29;20091;-88
2022/04/24 01:56:59;;;;;;;8.50;4.45;;;10.50;99.90;;;;;;4919557;29;20023;-87
2022/04/24 01:59:25;;;;;;;8.05;4.32;;;10.70;99.90;;;;;;4937526;29;20035;-87
2022/04/24 02:01:50;;;;;;;8.75;4.57;;;10.50;99.90;;;;;;4940580;29;20037;-88
2022/04/24 02:04:19;;;;;;;8.63;5.03;;;10.40;99.90;;;;;;4937198;29;20024;-87
2022/04/24 02:06:44;;;;;;;6.93;3.90;;;10.50;99.90;;;;;;4936993;29;20494;-88
2022/04/24 02:09:49;;;;;;;;;;;;;;;;;;;;;
2022/04/24 02:12:40;;;;;;;10.25;4.65;;;10.50;99.90;;;;;;4941217;29;20127;-90
2022/04/24 02:15:53;;;;;;;9.93;4.38;;;10.50;99.90;;;;;;4917420;29;20092;-90
2022/04/24 02:44:14;;;;;;;11.07;5.22;;;10.50;99.90;;;;;;4964913;28;20054;-89
2022/04/24 02:46:43;;;;;;;9.07;5.00;;;10.50;99.90;;;;;;4950988;28;20019;-88
2022/04/24 02:49:12;;;;;;;9.68;4.85;;;10.40;99.90;;;;;;4954595;28;20047;-89
2022/04/24 02:51:38;;;;;;;9.73;5.00;;;10.50;99.90;;;;;;4955984;28;20029;-89
2022/04/24 02:54:06;;;;;;;8.18;4.25;;;10.40;99.90;;;;;;4973488;28;20457;-88
2022/04/24 02:56:32;;;;;;;10.13;4.80;;;10.40;99.90;;;;;;4954426;28;20027;-89
2022/04/24 02:58:58;;;;;;;10.60;4.95;;;10.50;99.90;;;;;;4974226;28;20034;-89
2022/04/24 03:01:23;;;;;;;8.20;4.95;;;10.40;99.90;;;;;;4955191;28;20456;-89
2022/04/24 03:03:51;;;;;;;11.30;4.90;;;10.40;99.90;;;;;;4966774;28;20050;-89
2022/04/24 03:06:19;;;;;;;11.57;5.00;;;10.30;99.90;;;;;;4973015;28;20019;-87
2022/04/24 03:08:47;;;;;;;11.32;5.30;;;10.20;99.90;;;;;;4952274;28;20066;-88
2022/04/24 03:11:14;;;;;;;8.15;4.18;;;10.20;99.90;;;;;;4954573;28;20019;-88
2022/04/24 03:13:40;;;;;;;10.48;4.80;;;10.30;99.90;;;;;;4970953;28;20057;-88
2022/04/24 03:16:06;;;;;;;9.07;4.95;;;10.20;99.90;;;;;;4951521;28;20023;-88
2022/04/24 03:18:35;;;;;;;8.95;4.50;;;10.20;99.90;;;;;;4956390;28;20070;-88
2022/04/24 03:21:01;;;;;;;11.10;5.20;;;10.20;99.90;;;;;;4960719;28;20019;-89
2022/04/24 03:23:27;;;;;;;10.38;4.53;;;10.30;99.90;;;;;;4953231;28;20027;-88
2022/04/24 03:25:52;;;;;;;10.82;4.68;;;10.30;99.90;;;;;;4952960;28;20073;-88
2022/04/24 03:28:18;;;;;;;10.07;4.90;;;10.30;99.90;;;;;;4959643;28;20027;-89
2022/04/24 03:30:44;;;;;;;9.10;4.40;;;10.40;99.90;;;;;;4976965;28;20506;-89
2022/04/24 03:33:10;;;;;;;9.73;5.50;;;10.40;99.90;;;;;;4954186;28;20536;-88
2022/04/24 03:35:36;;;;;;;9.20;5.15;;;10.40;99.90;;;;;;4981217;28;20027;-88
2022/04/24 03:38:02;;;;;;;9.75;4.80;;;10.40;99.90;;;;;;4961166;28;20131;-88
2022/04/24 03:40:28;;;;;;;9.40;5.03;;;10.40;99.90;;;;;;4976215;28;20023;-88
2022/04/24 03:42:54;;;;;;;10.18;4.75;;;10.50;99.90;;;;;;4979810;28;20039;-88
2022/04/24 03:45:20;;;;;;;11.55;5.82;;;10.40;99.90;;;;;;4961526;28;20054;-87
2022/04/24 03:47:47;;;;;;;11.43;5.22;;;10.50;99.90;;;;;;4975983;28;20054;-87
2022/04/24 03:50:14;;;;;;;8.50;4.88;;;10.40;99.90;;;;;;4955857;28;20022;-88
2022/04/24 03:52:39;;;;;;;10.85;5.20;;;10.40;99.90;;;;;;4955960;28;20496;-88
2022/04/24 03:55:06;;;;;;;11.85;5.65;;;10.30;99.90;;;;;;4954514;28;20027;-87
2022/04/24 03:57:33;;;;;;;11.23;5.32;;;10.30;99.90;;;;;;4964934;28;20026;-87
2022/04/24 03:59:59;;;;;;;10.38;5.50;;;10.10;99.90;;;;;;4958363;28;20023;-88
2022/04/24 04:02:25;;;;;;;10.07;5.47;;;10.20;99.90;;;;;;4973488;28;20101;-87
2022/04/24 04:04:50;;;;;;;11.10;5.35;;;10.20;99.90;;;;;;4955285;28;20535;-86
2022/04/24 04:07:16;;;;;;;10.68;5.53;;;10.10;99.90;;;;;;4954748;28;20027;-87
2022/04/24 04:09:42;;;;;;;11.25;5.38;;;10.20;99.90;;;;;;4958017;28;20162;-86
2022/04/24 04:12:08;;;;;;;10.50;5.40;;;10.20;99.90;;;;;;4958026;28;20523;-86
2022/04/24 04:14:34;;;;;;;9.98;5.32;;;10.20;99.90;;;;;;4969018;28;20109;-87
2022/04/24 04:17:00;;;;;;;11.82;6.38;;;10.30;99.90;;;;;;4951238;28;20660;-87
2022/04/24 04:19:25;;;;;;;12.55;6.07;;;10.20;99.90;;;;;;4974609;28;20445;-87
2022/04/24 04:21:51;;;;;;;11.73;5.38;;;10.30;99.90;;;;;;4968741;28;20289;-87
2022/04/24 04:24:19;;;;;;;10.50;5.00;;;10.20;99.90;;;;;;4975314;28;20023;-87
2022/04/24 04:26:45;;;;;;;10.93;5.25;;;10.10;99.90;;;;;;4956126;28;20485;-86
2022/04/24 04:29:13;;;;;;;10.75;4.75;;;10.00;99.90;;;;;;4956824;28;20070;-86
2022/04/24 04:31:39;;;;;;;9.43;5.15;;;9.90;99.90;;;;;;4953568;28;20046;-86
2022/04/24 04:34:05;;;;;;;11.73;5.63;;;9.90;99.90;;;;;;4956920;28;20069;-87
2022/04/24 04:36:39;;;;;;;11.10;5.20;;;9.70;99.90;;;;;;4964965;28;20057;-87
2022/04/24 04:39:05;;;;;;;9.88;4.43;;;9.40;99.90;;;;;;4944947;28;20105;-86
2022/04/24 04:41:33;;;;;;;5.97;2.53;;;9.20;99.90;;;;;;4964630;28;20102;-87
2022/04/24 04:44:00;;;;;;;5.10;2.30;;;9.10;99.90;;;;;;4956053;28;20481;-87
2022/04/24 04:46:26;;;;;;;5.78;2.22;;;9.00;99.90;;;;;;4951276;28;20034;-87
2022/04/24 04:48:52;;;;;;;3.50;1.27;;;8.80;99.90;;;;;;4955008;28;20027;-87
2022/04/24 04:51:20;;;;;;;2.25;0.90;;;8.70;99.90;;;;;;4972441;28;20519;-86
2022/04/24 04:53:51;;;;;;;2.97;1.17;;;8.50;99.90;;;;;;4956081;28;20046;-87
2022/04/24 04:56:17;;;;;;;3.65;1.10;;;8.50;99.90;;;;;;4952026;28;20034;-87
2022/04/24 04:58:42;;;;;;;1.83;0.70;;;8.40;99.90;;;;;;4955857;28;20078;-88
2022/04/24 05:01:10;;;;;;;2.72;0.80;;;8.30;99.90;;;;;;4951641;28;20026;-87
2022/04/24 05:03:39;;;;;;;1.38;0.65;;;8.20;99.90;;;;;;4968948;28;20031;-87
2022/04/24 05:06:05;;;;;;;0.98;0.63;;;8.20;99.90;;;;;;4952900;28;20609;-87
2022/04/24 05:08:33;;;;;;;2.35;0.68;;;8.20;99.90;;;;;;4955263;28;20544;-88
2022/04/24 05:11:31;;;;;;;0.45;0.20;;;8.10;99.90;;;;;;4956860;28;20130;-88
2022/04/24 05:13:59;;;;;;;1.42;0.30;;;8.10;99.90;;;;;;4944593;28;20058;-87
2022/04/24 05:16:25;;;;;;;0.38;0.20;;;8.10;99.90;;;;;;4939704;28;20370;-87
2022/04/24 05:18:51;;;;;;;0.20;0.10;;;8.20;99.90;;;;;;4955854;28;20129;-87
2022/04/24 05:21:17;;;;;;;0.22;0.10;;;8.10;99.90;;;;;;4970826;28;20409;-86
2022/04/24 05:23:48;;;;;;;0.10;0.08;;;8.00;99.90;;;;;;4975713;28;20130;-89
2022/04/24 05:26:23;;;;;;;0.20;0.00;;;7.80;99.90;;;;;;4952320;28;20094;-87
2022/04/24 05:29:00;;;;;;;0.20;0.00;;;7.80;99.90;;;;;;4971731;28;20322;-88
2022/04/24 05:31:26;;;;;;;0.22;0.00;;;7.60;99.90;;;;;;4972728;28;20049;-87
2022/04/24 05:33:55;;;;;;;0.40;0.20;;;7.60;99.90;;;;;;4960013;28;20469;-87
2022/04/24 05:36:20;;;;;;;0.20;0.00;;;7.60;99.90;;;;;;4969448;28;20041;-87
2022/04/24 05:38:49;;;;;;;0.08;0.00;;;7.60;99.90;;;;;;4957917;28;20031;-87
2022/04/24 05:41:15;;;;;;;0.10;0.00;;;7.60;99.90;;;;;;4953903;28;20126;-86
2022/04/24 05:43:48;;;;;;;0.75;0.00;;;7.50;99.90;;;;;;4950230;28;20085;-86
2022/04/24 05:46:17;;;;;;;0.17;0.00;;;7.50;99.90;;;;;;4956669;28;20042;-86
2022/04/24 05:48:42;;;;;;;0.20;0.00;;;7.40;99.90;;;;;;4952035;28;20023;-87
2022/04/24 05:51:11;;;;;;;0.00;0.00;;;7.40;99.90;;;;;;4955773;28;20504;-86
2022/04/24 05:53:40;;;;;;;0.00;0.00;;;7.60;99.90;;;;;;4967846;28;20117;-87
2022/04/24 05:56:08;;;;;;;0.20;0.00;;;7.50;99.90;;;;;;4971754;28;20031;-86
2022/04/24 05:58:47;;;;;;;0.10;0.10;;;7.50;99.90;;;;;;4972589;28;20462;-88
2022/04/24 06:01:22;;;;;;;0.20;0.10;;;7.60;99.90;;;;;;4950127;28;20042;-87
2022/04/24 06:03:56;;;;;;;1.67;0.00;;;7.50;99.90;;;;;;4970791;28;20019;-87
2022/04/24 06:06:22;;;;;;;0.10;0.08;;;7.60;99.90;;;;;;4967920;28;20046;-87
2022/04/24 06:08:54;;;;;;;0.00;0.00;;;7.70;99.90;;;;;;4956237;28;20031;-88
2022/04/24 06:11:47;;;;;;;0.00;0.00;;;7.70;99.90;;;;;;4952759;28;20037;-87
2022/04/24 06:14:14;;;;;;;0.10;0.00;;;7.70;99.90;;;;;;4972950;28;20031;-87
2022/04/24 06:16:45;;;;;;;0.00;0.00;;;7.60;99.90;;;;;;4951872;28;20035;-87
2022/04/24 06:19:36;;;;;;;;;;;;;;;;;;;;;
2022/04/24 06:22:20;;;;;;;0.00;0.00;;;7.50;99.90;;;;;;4967605;28;20515;-87
2022/04/24 06:25:17;;;;;;;0.08;0.00;;;7.60;99.90;;;;;;4951991;28;20062;-87
2022/04/24 06:27:57;;;;;;;0.00;0.00;;;7.70;99.90;;;;;;4965689;28;20033;-87
2022/04/24 06:30:31;;;;;;;0.00;0.00;;;7.80;99.90;;;;;;4935265;28;20051;-87
2022/04/24 06:33:13;;;;;;;0.17;0.10;;;7.70;99.90;;;;;;4954715;28;20031;-87
2022/04/24 06:35:45;;;;;;;1.83;0.00;;;7.70;99.90;;;;;;4942939;28;20034;-87
2022/04/24 06:38:26;;;;;;;0.73;0.00;;;7.70;99.90;;;;;;4953715;28;20045;-87
2022/04/24 06:44:06;;;;;;;0.00;0.00;;;7.80;99.90;;;;;;4968793;28;20586;-86
2022/04/24 06:46:46;;;;;;;0.30;0.00;;;7.80;99.90;;;;;;4940433;28;20157;-87
2022/04/24 06:49:12;;;;;;;0.00;0.00;;;7.70;99.90;;;;;;4951965;28;20050;-86
2022/04/24 06:51:38;;;;;;;0.20;0.00;;;7.70;99.90;;;;;;4953766;28;20031;-87
2022/04/24 06:54:16;;;;;;;0.00;0.00;;;7.80;99.90;;;;;;4954986;28;20038;-87
2022/04/24 06:56:47;;;;;;;0.00;0.00;;;7.80;99.90;;;;;;4948301;28;20035;-88
2022/04/24 06:59:22;;;;;;;0.00;0.00;;;7.80;99.90;;;;;;4955840;28;20026;-86
2022/04/24 07:02:00;;;;;;;0.00;0.00;;;7.90;99.90;;;;;;4971990;28;20054;-87
2022/04/24 07:04:31;;;;;;;0.40;0.10;;;7.80;99.90;;;;;;4941938;28;20081;-87
2022/04/24 07:07:02;;;;;;;0.45;0.00;;;7.80;99.90;;;;;;4972776;28;20034;-88
2022/04/24 07:09:29;;;;;;;0.00;0.00;;;7.90;99.90;;;;;;4949212;28;20053;-87
2022/04/24 07:11:57;;;;;;;0.05;0.00;;;7.90;99.90;;;;;;4952883;28;20098;-87
2022/04/24 07:14:29;;;;;;;0.13;0.00;;;7.70;99.90;;;;;;4940475;28;20046;-87
2022/04/24 07:17:18;;;;;;;0.00;0.00;;;7.70;99.90;;;;;;4969674;28;20162;-87
2022/04/24 07:20:08;;;;;;;0.00;0.00;;;7.80;99.90;;;;;;4938828;28;20026;-87
2022/04/24 07:23:02;;;;;;;0.00;0.00;;;7.80;99.90;;;;;;4970655;28;20496;-87
2022/04/24 07:25:58;;;;;;;0.15;0.00;;;7.80;99.90;;;;;;4934386;28;20031;-87
2022/04/24 07:28:42;;;;;;;1.20;0.00;;;7.70;99.90;;;;;;4949097;28;20027;-87
2022/04/24 07:31:29;;;;;;;;;;;;;;;;;;;;;
2022/04/24 07:34:15;;;;;;;0.08;0.00;;;7.80;99.90;;;;;;4972557;28;20023;-87
2022/04/24 07:37:02;;;;;;;0.20;0.10;;;7.70;99.90;;;;;;4957246;28;20059;-87
2022/04/24 07:39:41;;;;;;;0.08;0.00;;;7.70;99.90;;;;;;4948625;28;20027;-88
2022/04/24 07:42:21;;;;;;;0.05;0.00;;;7.80;99.90;;;;;;4955420;28;20173;-87
2022/04/24 07:44:51;;;;;;;0.70;0.00;;;7.80;99.90;;;;;;4950445;28;20055;-87
2022/04/24 07:47:55;;;;;;;0.15;0.00;;;7.90;99.90;;;;;;4952509;28;20752;-87
2022/04/24 07:50:26;;;;;;;0.68;0.03;;;8.00;99.90;;;;;;4970780;28;20042;-87
2022/04/24 07:53:03;;;;;;;0.00;0.00;;;8.00;99.90;;;;;;4948966;28;20038;-86
2022/04/24 07:55:59;;;;;;;0.00;0.00;;;8.00;99.90;;;;;;4955354;28;20513;-87
2022/04/24 07:58:37;;;;;;;0.52;0.10;;;8.10;99.90;;;;;;4947642;28;20134;-87
2022/04/24 08:01:04;;;;;;;0.00;0.00;;;8.10;99.90;;;;;;4950636;28;20023;-87
2022/04/24 08:03:33;;;;;;;0.00;0.00;;;8.20;99.90;;;;;;4952004;28;20102;-87
2022/04/24 08:06:01;;;;;;;0.10;0.00;;;8.20;99.90;;;;;;4952437;28;20019;-86
2022/04/24 08:08:36;;;;;;;0.00;0.00;;;8.30;99.90;;;;;;4952158;28;20122;-86
2022/04/24 08:11:01;;;;;;;2.72;0.00;;;8.20;99.90;;;;;;4969976;23;21107;-87
2022/04/24 08:13:27;;;;;;;0.35;0.00;;;8.20;99.90;;;;;;4965065;28;20040;-88
2022/04/24 08:15:53;;;;;;;0.00;0.00;;;8.30;99.90;;;;;;4950648;28;20061;-88
2022/04/24 08:18:20;;;;;;;0.10;0.05;;;8.30;99.90;;;;;;4952177;28;20110;-89
2022/04/24 08:20:46;;;;;;;0.00;0.00;;;8.20;99.90;;;;;;4946499;28;20039;-88
2022/04/24 08:23:15;;;;;;;0.38;0.10;;;8.10;99.90;;;;;;4941413;28;20047;-89
2022/04/24 08:25:40;;;;;;;0.43;0.15;;;8.10;99.90;;;;;;4949968;28;20071;-87
2022/04/24 08:28:10;;;;;;;0.40;0.03;;;8.10;99.90;;;;;;4962372;28;20038;-89
2022/04/24 08:30:38;;;;;;;0.13;0.00;;;8.10;99.90;;;;;;4960542;28;20501;-87
2022/04/24 08:33:04;;;;;;;0.17;0.00;;;8.00;99.90;;;;;;4951838;28;20030;-87
2022/04/24 08:35:30;;;;;;;0.00;0.00;;;8.00;99.90;;;;;;4970151;28;20082;-88
2022/04/24 08:37:56;;;;;;;0.20;0.00;;;7.90;99.90;;;;;;4963584;28;20030;-89
2022/04/24 08:40:24;;;;;;;0.20;0.10;;;7.90;99.90;;;;;;4948400;28;20478;-87
2022/04/24 08:42:51;;;;;;;0.20;0.10;;;8.10;99.90;;;;;;4934095;28;20046;-89
2022/04/24 08:45:17;;;;;;;0.03;0.00;;;7.90;99.90;;;;;;4949387;28;20839;-90
2022/04/24 08:47:44;;;;;;;0.73;0.13;;;7.90;99.90;;;;;;4946040;28;20026;-89
2022/04/24 08:50:12;;;;;;;0.13;0.00;;;7.80;99.90;;;;;;4962654;28;20478;-89
2022/04/24 08:52:45;;;;;;;0.27;0.10;;;8.10;99.90;;;;;;4945986;28;20035;-88
2022/04/24 08:55:11;;;;;;;0.10;0.00;;;8.00;99.90;;;;;;4962458;28;20031;-89
2022/04/24 08:57:36;;;;;;;0.55;0.10;;;8.00;99.90;;;;;;4962936;28;20026;-89
2022/04/24 09:00:07;;;;;;;0.35;0.00;;;8.10;99.90;;;;;;4948699;28;20082;-89
2022/04/24 09:02:33;;;;;;;0.50;0.10;;;7.80;99.90;;;;;;4956801;28;20470;-89
2022/04/24 09:04:59;;;;;;;0.00;0.00;;;7.90;99.90;;;;;;4963572;28;20396;-89
2022/04/24 09:07:31;;;;;;;0.30;0.00;;;7.90;99.90;;;;;;4938304;28;20719;-89
2022/04/24 09:10:14;;;;;;;;;;;7.90;99.90;;;;;;4939236;28;20033;-89
2022/04/24 09:12:40;;;;;;;0.38;0.10;;;7.90;99.90;;;;;;4936671;28;20436;-89
2022/04/24 09:15:17;;;;;;;0.35;0.00;;;8.30;99.90;;;;;;4940515;28;20039;-89
2022/04/24 09:17:43;;;;;;;0.50;0.20;;;7.90;99.90;;;;;;4941060;28;20027;-88
2022/04/24 09:20:20;;;;;;;0.43;0.20;;;8.00;99.90;;;;;;4962808;28;20045;-89
2022/04/24 09:22:47;;;;;;;0.30;0.00;;;8.10;99.90;;;;;;4956745;28;20083;-90
2022/04/24 09:25:13;;;;;;;1.00;0.15;;;8.20;99.90;;;;;;4941065;28;20023;-88
2022/04/24 09:27:40;;;;;;;0.32;0.05;;;8.30;99.90;;;;;;4941171;28;20033;-88
2022/04/24 09:30:09;;;;;;;0.63;0.15;;;8.10;99.90;;;;;;4940474;28;20046;-89
2022/04/24 09:32:56;;;;;;;0.28;0.10;;;8.10;99.90;;;;;;4966684;28;20098;-89
2022/04/24 09:35:32;;;;;;;0.57;0.10;;;8.10;99.90;;;;;;4957795;28;20046;-89
2022/04/24 09:38:06;;;;;;;0.82;0.15;;;8.10;99.90;;;;;;4942795;28;20565;-89
2022/04/24 09:40:44;;;;;;;0.93;0.25;;;8.10;99.90;;;;;;4942207;28;20046;-89
2022/04/24 09:43:20;;;;;;;0.22;0.10;;;8.10;99.90;;;;;;4933631;28;20034;-89
2022/04/24 09:45:58;;;;;;;1.02;0.20;;;8.30;99.90;;;;;;4935104;28;20087;-90
2022/04/24 09:48:27;;;;;;;0.28;0.10;;;8.10;99.90;;;;;;4949381;28;20042;-89
2022/04/24 09:50:54;;;;;;;0.55;0.10;;;8.20;99.90;;;;;;4955265;28;20110;-88
2022/04/24 09:53:22;;;;;;;1.48;0.13;;;8.30;99.90;;;;;;4937574;28;20027;-89
2022/04/24 09:55:49;;;;;;;0.50;0.10;;;8.40;99.90;;;;;;4932343;28;20179;-88
2022/04/24 09:58:15;;;;;;;1.35;0.20;;;8.50;99.90;;;;;;4936083;28;20033;-88
2022/04/24 10:00:42;;;;;;;0.95;0.10;;;8.50;99.90;;;;;;4948287;28;20713;-88
2022/04/24 10:03:15;;;;;;;0.32;0.13;;;8.50;99.90;;;;;;4938894;28;20363;-90
2022/04/24 10:05:43;;;;;;;0.35;0.10;;;8.50;99.90;;;;;;4942529;28;20046;-88
2022/04/24 10:08:12;;;;;;;0.47;0.15;;;8.60;99.90;;;;;;4942554;28;20027;-90
2022/04/24 10:10:38;;;;;;;0.20;0.10;;;8.60;99.90;;;;;;4943425;28;20045;-88
2022/04/24 10:13:07;;;;;;;0.43;0.20;;;8.50;99.90;;;;;;4943461;28;20031;-88
2022/04/24 10:15:47;;;;;;;0.45;0.10;;;8.50;99.90;;;;;;4943496;28;20509;-90
2022/04/24 10:18:30;;;;;;;1.02;0.20;;;8.40;99.90;;;;;;4956584;28;20504;-89
2022/04/24 10:21:21;;;;;;;1.40;0.30;;;8.50;99.90;;;;;;4962706;28;20033;-89
2022/04/24 10:23:50;;;;;;;0.73;0.20;;;8.40;99.90;;;;;;4943171;28;20042;-89
2022/04/24 10:26:23;;;;;;;0.52;0.10;;;8.40;99.90;;;;;;4947044;28;20090;-89
2022/04/24 10:29:03;;;;;;;0.68;0.10;;;8.50;99.90;;;;;;4947819;28;20029;-88
2022/04/24 10:31:44;;;;;;;0.70;0.20;;;8.60;99.90;;;;;;4965041;28;20035;-88
2022/04/24 10:34:11;;;;;;;0.43;0.15;;;8.60;99.90;;;;;;4956939;28;20281;-88
2022/04/24 10:36:37;;;;;;;0.57;0.20;;;8.70;99.90;;;;;;4931216;29;20036;-88
2022/04/24 10:39:45;;;;;;;1.30;0.20;;;8.90;99.90;;;;;;4937875;28;20030;-88
2022/04/24 10:42:16;;;;;;;0.28;0.10;;;8.80;99.90;;;;;;4956184;28;20137;-89
2022/04/24 10:44:52;;;;;;;0.82;0.30;;;8.90;99.90;;;;;;4940610;28;20557;-88
2022/04/24 10:47:21;;;;;;;1.05;0.32;;;8.90;99.90;;;;;;4944306;28;20035;-89
2022/04/24 10:50:06;;;;;;;0.40;0.10;;;8.90;99.90;;;;;;4935636;28;20023;-88
2022/04/24 10:52:57;;;;;;;0.38;0.20;;;9.00;99.90;;;;;;4940861;29;20064;-91
2022/04/24 10:55:54;;;;;;;0.10;0.10;;;9.00;99.90;;;;;;4931974;29;20035;-91
2022/04/24 10:58:31;;;;;;;0.28;0.10;;;8.90;99.90;;;;;;4924164;29;20166;-90
2022/04/24 11:01:51;;;;;;;0.77;0.22;;;9.00;99.90;;;;;;4917338;29;20036;-91
2022/04/24 11:08:05;;;;;;;0.88;0.22;;;9.20;99.90;;;;;;4942512;28;20047;-91
2022/04/24 11:10:51;;;;;;;0.30;0.10;;;9.10;99.90;;;;;;4950634;29;20042;-91
2022/04/24 11:14:00;;;;;;;1.15;0.20;;;9.10;99.90;;;;;;4946278;29;20046;-92
2022/04/24 11:16:57;;;;;;;;;;;;;;;;;;;;;
2022/04/24 11:23:08;;;;;;;0.28;0.10;;;9.20;99.90;;;;;;4962729;28;20076;-92
2022/04/24 11:25:54;;;;;;;0.60;0.10;;;9.20;99.90;;;;;;4929141;29;20046;-92
2022/04/24 11:29:11;;;;;;;0.30;0.10;;;9.20;99.90;;;;;;4934247;29;20039;-91
2022/04/24 11:57:09;;;;;;;0.10;0.05;;;9.70;99.90;;;;;;4917226;29;20075;-87
2022/04/24 11:59:37;;;;;;;1.88;0.10;;;9.70;99.90;;;;;;4908604;29;20149;-88
2022/04/24 12:02:05;;;;;;;0.20;0.00;;;9.60;99.90;;;;;;4906466;29;20463;-87
2022/04/24 12:04:40;;;;;;;0.45;0.10;;;9.60;99.90;;;;;;4909340;29;20068;-86
2022/04/24 12:07:09;;;;;;;0.45;0.10;;;9.60;99.90;;;;;;4921577;29;20082;-87
2022/04/24 12:09:36;;;;;;;0.30;0.10;;;9.70;99.90;;;;;;4916793;29;20201;-87
2022/04/24 12:12:07;;;;;;;0.70;0.10;;;9.60;99.90;;;;;;4928426;29;20147;-86
2022/04/24 12:14:34;;;;;;;0.13;0.10;;;9.50;99.90;;;;;;4916376;29;20036;-86
2022/04/24 12:17:03;;;;;;;0.00;0.00;;;9.80;99.90;;;;;;4932907;29;20136;-88
2022/04/24 12:19:30;;;;;;;0.20;0.10;;;9.70;99.90;;;;;;4934890;29;20034;-87
2022/04/24 12:22:08;;;;;;;0.25;0.10;;;9.80;99.90;;;;;;4943643;28;20110;-87
2022/04/24 12:24:45;;;;;;;0.28;0.10;;;9.60;99.90;;;;;;4938878;29;20107;-87
2022/04/24 12:27:14;;;;;;;0.40;0.10;;;9.70;99.90;;;;;;4903447;29;20031;-87
2022/04/24 12:29:45;;;;;;;0.52;0.10;;;9.70;99.90;;;;;;4934136;29;20036;-87
2022/04/24 12:32:13;;;;;;;0.40;0.10;;;9.80;99.90;;;;;;4920233;29;20497;-88
2022/04/24 12:34:44;;;;;;;0.28;0.20;;;9.70;99.90;;;;;;4919332;29;20032;-87
2022/04/24 12:37:11;;;;;;;0.20;0.00;;;9.80;99.90;;;;;;4935789;29;20032;-87
2022/04/24 12:39:37;;;;;;;0.10;0.10;;;9.80;99.90;;;;;;4934312;29;20024;-88
2022/04/24 12:42:17;;;;;;;0.43;0.17;;;9.90;99.90;;;;;;4919731;29;20035;-88
2022/04/24 12:44:44;;;;;;;0.40;0.10;;;10.00;99.90;;;;;;4919531;29;20146;-88
2022/04/24 12:47:12;;;;;;;0.10;0.10;;;10.10;99.90;;;;;;4935853;29;20032;-88
2022/04/24 12:49:40;;;;;;;1.35;0.13;;;9.90;99.90;;;;;;4920944;29;20032;-87
2022/04/24 12:52:09;;;;;;;2.00;0.20;;;9.90;99.90;;;;;;4918470;29;20024;-88
2022/04/24 12:54:35;;;;;;;0.00;0.00;;;10.00;99.90;;;;;;4936799;29;20763;-88
2022/04/24 12:57:01;;;;;;;0.20;0.10;;;9.90;99.90;;;;;;4919416;29;20046;-89
2022/04/24 12:59:29;;;;;;;0.47;0.20;;;9.80;99.90;;;;;;4936946;29;20402;-88
2022/04/24 13:01:57;;;;;;;0.52;0.15;;;9.80;99.90;;;;;;4932090;29;20030;-88
2022/04/24 13:04:23;;;;;;;0.30;0.10;;;9.80;99.90;;;;;;4917814;29;20038;-89
2022/04/24 13:06:50;;;;;;;0.52;0.35;;;9.80;99.90;;;;;;4917165;29;20024;-88
2022/04/24 13:09:16;;;;;;;0.20;0.10;;;9.60;99.90;;;;;;4932395;29;20024;-89
2022/04/24 13:11:47;;;;;;;1.70;0.20;;;9.70;99.90;;;;;;4922265;29;20028;-89
2022/04/24 13:14:13;;;;;;;0.32;0.00;;;9.80;99.90;;;;;;4926657;29;20697;-88
2022/04/24 13:19:28;;;;;;;0.68;0.17;;;9.70;99.90;;;;;;4935276;29;20842;-89
2022/04/24 13:21:53;;;;;;;0.22;0.10;;;9.70;99.90;;;;;;4936562;29;20032;-87
2022/04/24 13:24:22;;;;;;;0.20;0.10;;;9.90;99.90;;;;;;4918809;29;20111;-89
2022/04/24 13:26:48;;;;;;;0.32;0.10;;;9.70;99.90;;;;;;4924761;29;20070;-88
2022/04/24 13:29:13;;;;;;;0.13;0.00;;;10.00;99.90;;;;;;4920426;29;20062;-87
2022/04/24 13:31:39;;;;;;;0.10;0.00;;;9.90;99.90;;;;;;4919361;29;20034;-88
2022/04/24 13:34:04;;;;;;;0.20;0.00;;;9.70;99.90;;;;;;4928675;29;20063;-87
2022/04/24 13:36:30;;;;;;;0.17;0.00;;;9.80;99.90;;;;;;4916572;29;20032;-87
2022/04/24 13:38:56;;;;;;;0.35;0.00;;;9.70;99.90;;;;;;4943721;29;20402;-88
2022/04/24 13:41:26;;;;;;;0.00;0.00;;;9.80;99.90;;;;;;4926999;29;20042;-87
2022/04/24 13:43:52;;;;;;;0.63;0.10;;;9.90;99.90;;;;;;4951274;29;20393;-87
2022/04/24 13:46:17;;;;;;;0.00;0.00;;;9.70;99.90;;;;;;4927899;29;20055;-87
2022/04/24 13:48:43;;;;;;;0.00;0.00;;;9.60;99.90;;;;;;4930681;29;20028;-87
2022/04/24 13:51:09;;;;;;;1.90;0.10;;;9.70;99.90;;;;;;4930651;29;20478;-88
2022/04/24 13:53:35;;;;;;;0.00;0.00;;;9.50;99.90;;;;;;4935472;29;20043;-87
2022/04/24 13:56:01;;;;;;;0.25;0.00;;;9.60;99.90;;;;;;4934342;29;20117;-87
2022/04/24 13:58:27;;;;;;;0.20;0.10;;;9.50;99.90;;;;;;4911221;29;20403;-87
2022/04/24 14:00:55;;;;;;;0.20;0.10;;;9.60;99.90;;;;;;4921937;29;20032;-88
2022/04/24 14:03:27;;;;;;;0.20;0.00;;;9.70;99.90;;;;;;4932992;29;20048;-87
2022/04/24 14:05:54;;;;;;;0.20;0.10;;;9.60;99.90;;;;;;4923230;29;20049;-88
2022/04/24 14:08:24;;;;;;;0.60;0.10;;;9.70;99.90;;;;;;4919986;29;20032;-85
2022/04/24 14:10:50;;;;;;;0.32;0.20;;;9.60;99.90;;;;;;4928451;29;20036;-85
2022/04/24 14:15:58;;;;;;;0.03;0.00;;;9.60;99.90;;;;;;4936977;28;20586;-87
2022/04/24 14:18:24;;;;;;;0.73;0.10;;;9.60;99.90;;;;;;4950538;28;20095;-87
2022/04/24 14:20:52;;;;;;;0.47;0.10;;;9.50;99.90;;;;;;4933648;29;20023;-86
2022/04/24 14:23:23;;;;;;;0.10;0.00;;;9.40;99.90;;;;;;4927117;29;20027;-86
2022/04/24 14:25:53;;;;;;;0.00;0.00;;;9.30;99.90;;;;;;4930371;29;20035;-86